Time;durP1;ratioP1;P1;durP2;ratioP2;P2;SDS_P1;SDS_P2;PMS_P1;PMS_P2;Temp;Humidity;BMP_temperature;BMP_pressure;BME280_temperature;BME280_humidity;BME280_pressure;Samples;Min_cycle;Max_cycle;Signal;HPM_P1;HPM_P2
2023/03/24 00:02:22;;;;;;;5.25;3.95;;;11.50;99.90;;;;;;5083238;28;20068;-36
2023/03/24 00:04:52;;;;;;;7.75;4.72;;;11.50;99.90;;;;;;5067836;28;20040;-36
2023/03/24 00:07:18;;;;;;;7.10;4.45;;;11.50;99.90;;;;;;5086237;28;20402;-36
2023/03/24 00:09:44;;;;;;;7.38;4.80;;;11.50;99.90;;;;;;5067288;28;20040;-36
2023/03/24 00:12:13;;;;;;;9.35;4.50;;;11.50;99.90;;;;;;5066006;28;20048;-36
2023/03/24 00:14:39;;;;;;;10.13;4.60;;;11.50;99.90;;;;;;5073254;28;20043;-37
2023/03/24 00:17:08;;;;;;;7.72;4.82;;;11.30;99.90;;;;;;5084191;28;20039;-37
2023/03/24 00:19:38;;;;;;;8.48;5.47;;;11.50;99.90;;;;;;5061790;28;20029;-37
2023/03/24 00:22:04;;;;;;;9.40;4.78;;;11.40;99.90;;;;;;5058876;28;20507;-37
2023/03/24 00:24:31;;;;;;;7.45;4.53;;;11.50;99.90;;;;;;5071828;28;20416;-38
2023/03/24 00:26:57;;;;;;;7.32;4.72;;;11.60;99.90;;;;;;5077753;28;20045;-37
2023/03/24 00:29:24;;;;;;;10.77;5.18;;;11.50;99.90;;;;;;5083923;28;20105;-37
2023/03/24 00:31:51;;;;;;;9.13;4.57;;;11.40;99.90;;;;;;5074386;28;20102;-38
2023/03/24 00:34:20;;;;;;;7.13;4.95;;;11.40;99.90;;;;;;5052583;28;20055;-37
2023/03/24 00:36:47;;;;;;;8.73;5.10;;;11.40;99.90;;;;;;5070048;28;20076;-38
2023/03/24 00:39:16;;;;;;;9.57;4.57;;;11.40;99.90;;;;;;5074246;28;20175;-38
2023/03/24 00:41:44;;;;;;;7.63;5.13;;;11.30;99.90;;;;;;5084880;28;20397;-37
2023/03/24 00:44:16;;;;;;;7.75;5.03;;;11.20;99.90;;;;;;5069564;28;20061;-37
2023/03/24 00:46:54;;;;;;;10.02;5.05;;;11.30;99.90;;;;;;5085708;28;20036;-37
2023/03/24 00:49:44;;;;;;;9.95;5.28;;;11.20;99.90;;;;;;5053067;28;20097;-37
2023/03/24 00:52:12;;;;;;;8.18;4.88;;;11.30;99.90;;;;;;5066165;28;20088;-38
2023/03/24 00:54:39;;;;;;;8.43;4.68;;;11.20;99.90;;;;;;5066441;28;20032;-37
2023/03/24 00:57:11;;;;;;;11.00;4.88;;;11.30;99.90;;;;;;5070652;28;20040;-38
2023/03/24 00:59:41;;;;;;;11.40;5.35;;;11.20;99.90;;;;;;5070475;28;20098;-38
2023/03/24 01:02:11;;;;;;;9.48;4.60;;;11.30;99.90;;;;;;5046799;28;20041;-38
2023/03/24 01:04:40;;;;;;;6.72;4.60;;;11.20;99.90;;;;;;5070401;28;20116;-38
2023/03/24 01:07:07;;;;;;;7.93;4.80;;;11.40;99.90;;;;;;5074330;28;20129;-38
2023/03/24 01:09:35;;;;;;;6.60;4.72;;;11.20;99.90;;;;;;5073814;28;20061;-38
2023/03/24 01:12:02;;;;;;;10.07;5.22;;;11.30;99.90;;;;;;5065441;28;20072;-38
2023/03/24 01:14:32;;;;;;;9.80;4.82;;;11.40;99.90;;;;;;5076591;28;20033;-38
2023/03/24 01:16:58;;;;;;;6.28;4.50;;;11.30;99.90;;;;;;5076902;28;20481;-38
2023/03/24 01:19:24;;;;;;;7.50;4.75;;;11.40;99.90;;;;;;5069828;28;20044;-38
2023/03/24 01:21:53;;;;;;;8.23;4.65;;;11.50;99.90;;;;;;5073221;28;20043;-38
2023/03/24 01:24:24;;;;;;;8.10;4.38;;;11.40;99.90;;;;;;5077197;28;20511;-38
2023/03/24 01:26:50;;;;;;;9.05;4.40;;;11.30;99.90;;;;;;5067010;28;20040;-38
2023/03/24 01:29:16;;;;;;;6.43;4.55;;;11.50;99.90;;;;;;5081331;28;20047;-38
2023/03/24 01:31:41;;;;;;;7.70;4.40;;;11.40;99.90;;;;;;5078395;28;20032;-38
2023/03/24 01:34:09;;;;;;;9.75;4.88;;;11.30;99.90;;;;;;5070029;28;20047;-38
2023/03/24 01:36:35;;;;;;;7.68;5.05;;;11.50;99.90;;;;;;5085069;28;20040;-37
2023/03/24 01:39:02;;;;;;;8.80;4.72;;;11.50;99.90;;;;;;5080406;28;20379;-37
2023/03/24 01:41:36;;;;;;;7.72;4.53;;;11.50;99.90;;;;;;5065593;28;20490;-38
2023/03/24 01:44:32;;;;;;;8.57;4.93;;;11.40;99.90;;;;;;5064583;28;20545;-38
2023/03/24 01:46:59;;;;;;;8.13;5.10;;;11.50;99.90;;;;;;5068557;28;20094;-38
2023/03/24 01:49:47;;;;;;;7.35;5.05;;;11.40;99.90;;;;;;5075957;28;20041;-37
2023/03/24 01:52:26;;;;;;;10.15;5.15;;;11.40;99.90;;;;;;5058417;28;20437;-37
2023/03/24 01:55:01;;;;;;;9.05;5.50;;;11.50;99.90;;;;;;5045803;28;20041;-37
2023/03/24 01:57:32;;;;;;;6.35;5.05;;;11.50;99.90;;;;;;5052956;28;20043;-37
2023/03/24 02:00:03;;;;;;;5.22;3.75;;;11.30;99.90;;;;;;5078690;28;20036;-38
2023/03/24 02:02:34;;;;;;;6.97;5.38;;;11.50;99.90;;;;;;5064169;28;20274;-37
2023/03/24 02:05:05;;;;;;;7.53;5.57;;;11.50;99.90;;;;;;5072285;28;20048;-37
2023/03/24 02:07:32;;;;;;;7.57;5.68;;;11.60;99.90;;;;;;5076360;28;20045;-38
2023/03/24 02:10:05;;;;;;;7.78;5.18;;;11.50;99.90;;;;;;5069826;28;20044;-37
2023/03/24 02:12:32;;;;;;;7.28;5.22;;;11.50;99.90;;;;;;5072106;28;20037;-38
2023/03/24 02:14:58;;;;;;;5.95;5.03;;;11.60;99.90;;;;;;5070999;28;20406;-37
2023/03/24 02:17:59;;;;;;;7.65;5.60;;;11.60;99.90;;;;;;5068458;28;20171;-37
2023/03/24 02:20:42;;;;;;;6.32;5.30;;;11.50;99.90;;;;;;5054554;28;20044;-37
2023/03/24 02:23:54;;;;;;;11.68;5.93;;;11.60;99.90;;;;;;5074892;28;20506;-37
2023/03/24 02:26:41;;;;;;;6.72;4.85;;;11.70;99.90;;;;;;5043583;28;20056;-38
2023/03/24 02:29:38;;;;;;;8.68;5.35;;;11.70;99.90;;;;;;5069921;28;20087;-38
2023/03/24 02:32:15;;;;;;;6.85;5.63;;;11.70;99.90;;;;;;5062888;28;20063;-38
2023/03/24 02:35:02;;;;;;;5.70;4.63;;;11.70;99.90;;;;;;5068102;28;20032;-38
2023/03/24 02:37:37;;;;;;;9.07;5.45;;;11.70;99.90;;;;;;5072506;28;20491;-37
2023/03/24 02:40:26;;;;;;;7.53;5.22;;;11.90;99.90;;;;;;5073073;28;20504;-38
2023/03/24 02:42:59;;;;;;;8.27;5.18;;;11.70;99.90;;;;;;5065125;28;20497;-38
2023/03/24 02:45:59;;;;;;;6.93;4.80;;;11.90;99.90;;;;;;5078472;28;20032;-37
2023/03/24 02:48:27;;;;;;;6.22;4.80;;;11.80;99.90;;;;;;5073253;28;20166;-37
2023/03/24 02:51:06;;;;;;;8.13;5.72;;;11.70;99.90;;;;;;5065983;28;20096;-38
2023/03/24 02:53:45;;;;;;;6.57;5.70;;;11.80;99.90;;;;;;5075343;28;20040;-37
2023/03/24 02:56:20;;;;;;;6.93;5.40;;;11.80;99.90;;;;;;5071577;28;20040;-38
2023/03/24 02:58:58;;;;;;;8.05;5.32;;;11.80;99.90;;;;;;5056081;28;20040;-37
2023/03/24 03:01:53;;;;;;;9.35;6.47;;;11.70;99.90;;;;;;5076087;28;20115;-37
2023/03/24 03:04:31;;;;;;;;;;;11.60;99.90;;;;;;5072816;28;20033;-37
2023/03/24 03:07:01;;;;;;;7.07;5.22;;;11.70;99.90;;;;;;5077069;28;19916;-38
2023/03/24 03:09:28;;;;;;;6.82;5.90;;;11.80;99.90;;;;;;5071640;28;20071;-37
2023/03/24 03:11:58;;;;;;;8.13;5.63;;;11.80;99.90;;;;;;5061658;28;20044;-38
2023/03/24 03:14:41;;;;;;;6.93;5.88;;;11.80;99.90;;;;;;5076300;28;20051;-37
2023/03/24 03:17:16;;;;;;;5.97;5.25;;;11.80;99.90;;;;;;5064233;28;20123;-37
2023/03/24 03:20:12;;;;;;;5.95;5.35;;;11.80;99.90;;;;;;5060165;28;20036;-37
2023/03/24 03:22:48;;;;;;;7.03;5.30;;;11.80;99.90;;;;;;5078084;28;20044;-39
2023/03/24 03:25:19;;;;;;;6.45;5.78;;;11.80;99.90;;;;;;5077146;28;20032;-36
2023/03/24 03:27:45;;;;;;;5.57;5.07;;;12.00;99.90;;;;;;5072062;28;20048;-35
2023/03/24 03:30:18;;;;;;;6.82;5.50;;;11.90;99.90;;;;;;5072137;28;20470;-36
2023/03/24 03:32:59;;;;;;;6.22;5.47;;;12.00;99.90;;;;;;5062581;28;20036;-36
2023/03/24 03:35:50;;;;;;;7.03;5.55;;;11.90;99.90;;;;;;5053112;28;20393;-35
2023/03/24 03:38:40;;;;;;;5.78;5.28;;;11.90;99.90;;;;;;5051838;28;20053;-35
2023/03/24 03:41:06;;;;;;;7.20;5.72;;;11.90;99.90;;;;;;5052045;28;20399;-35
2023/03/24 03:43:32;;;;;;;5.97;5.43;;;11.90;99.90;;;;;;5066784;28;20032;-37
2023/03/24 03:45:59;;;;;;;6.28;4.70;;;11.80;99.90;;;;;;5058577;28;20040;-36
2023/03/24 03:48:26;;;;;;;5.88;5.28;;;12.00;99.90;;;;;;5057526;28;20045;-35
2023/03/24 03:50:54;;;;;;;6.50;5.57;;;11.90;99.90;;;;;;5072084;28;20036;-35
2023/03/24 03:53:29;;;;;;;5.93;4.85;;;11.90;99.90;;;;;;5071960;28;20048;-36
2023/03/24 03:55:55;;;;;;;4.70;4.30;;;11.80;99.90;;;;;;5091646;28;20050;-35
2023/03/24 03:58:22;;;;;;;4.22;3.53;;;11.90;99.90;;;;;;5091822;28;20039;-35
2023/03/24 04:00:48;;;;;;;4.43;3.70;;;11.90;99.90;;;;;;5073629;28;20116;-35
2023/03/24 04:03:43;;;;;;;4.63;3.75;;;11.90;99.90;;;;;;5071230;28;20072;-35
2023/03/24 04:06:12;;;;;;;4.18;3.78;;;12.00;99.90;;;;;;5071550;28;20497;-35
2023/03/24 04:08:49;;;;;;;6.15;4.00;;;11.80;99.90;;;;;;5071085;28;20517;-36
2023/03/24 04:11:14;;;;;;;4.20;2.70;;;11.70;99.90;;;;;;5071636;28;20033;-35
2023/03/24 04:13:44;;;;;;;4.45;2.42;;;11.60;99.90;;;;;;5051604;28;20051;-35
2023/03/24 04:16:33;;;;;;;5.38;3.00;;;11.50;99.90;;;;;;5051544;28;20037;-36
2023/03/24 04:19:13;;;;;;;4.72;2.40;;;11.40;99.90;;;;;;5014245;28;20057;-36
2023/03/24 04:21:50;;;;;;;6.07;2.95;;;11.10;99.90;;;;;;5070221;28;20485;-36
2023/03/24 04:24:31;;;;;;;4.35;2.75;;;11.20;99.90;;;;;;5071222;28;20036;-35
2023/03/24 04:27:08;;;;;;;5.18;2.67;;;11.10;99.90;;;;;;5071280;28;20043;-36
2023/03/24 04:29:45;;;;;;;6.28;2.92;;;11.00;99.90;;;;;;5070885;28;20039;-35
2023/03/24 04:32:35;;;;;;;6.50;2.47;;;11.00;99.90;;;;;;5071297;28;20507;-36
2023/03/24 04:35:06;;;;;;;4.75;2.15;;;11.00;99.90;;;;;;5070809;28;20133;-36
2023/03/24 04:37:36;;;;;;;7.32;2.40;;;10.90;99.90;;;;;;5071073;28;20344;-35
2023/03/24 04:40:09;;;;;;;7.10;2.22;;;10.80;99.90;;;;;;5071090;28;20520;-35
2023/03/24 04:42:46;;;;;;;5.00;2.13;;;10.70;99.90;;;;;;5070930;28;20397;-35
2023/03/24 04:45:13;;;;;;;7.93;2.40;;;10.60;99.90;;;;;;5070717;28;20151;-35
2023/03/24 04:47:45;;;;;;;9.18;2.95;;;10.60;99.90;;;;;;5070920;28;20509;-36
2023/03/24 04:50:12;;;;;;;4.00;1.63;;;10.60;99.90;;;;;;5071556;28;20087;-35
2023/03/24 04:52:41;;;;;;;6.10;1.90;;;10.50;99.90;;;;;;5070565;28;20037;-36
2023/03/24 04:55:40;;;;;;;3.67;1.85;;;10.60;99.90;;;;;;5070896;28;20036;-35
2023/03/24 04:58:05;;;;;;;7.30;2.15;;;10.60;99.90;;;;;;5050773;28;20401;-36
2023/03/24 05:00:31;;;;;;;6.13;2.70;;;10.50;99.90;;;;;;5066721;28;20124;-36
2023/03/24 05:02:57;;;;;;;9.60;2.95;;;10.50;99.90;;;;;;5070730;28;20124;-36
2023/03/24 05:05:22;;;;;;;6.60;2.67;;;10.50;99.90;;;;;;5070772;28;20040;-36
2023/03/24 05:07:48;;;;;;;7.68;2.90;;;10.50;99.90;;;;;;5050413;28;20048;-36
2023/03/24 05:10:15;;;;;;;9.25;2.58;;;10.60;99.90;;;;;;5050783;28;20106;-38
2023/03/24 05:12:41;;;;;;;7.13;2.80;;;10.50;99.90;;;;;;5070687;28;20040;-36
2023/03/24 05:15:07;;;;;;;6.68;2.50;;;10.50;99.90;;;;;;5070453;28;20609;-37
2023/03/24 05:17:33;;;;;;;6.80;3.17;;;10.50;99.90;;;;;;5070707;28;20441;-36
2023/03/24 05:19:59;;;;;;;11.40;3.10;;;10.50;99.90;;;;;;5070662;28;20029;-36
2023/03/24 05:22:25;;;;;;;7.20;3.05;;;10.40;99.90;;;;;;5070691;28;20042;-37
2023/03/24 05:24:50;;;;;;;8.40;3.13;;;10.50;99.90;;;;;;5070357;28;20082;-33
2023/03/24 05:27:16;;;;;;;7.13;2.92;;;10.50;99.90;;;;;;5070383;28;20032;-36
2023/03/24 05:29:42;;;;;;;7.20;2.40;;;10.30;99.90;;;;;;5070197;28;20440;-36
2023/03/24 05:32:07;;;;;;;9.38;3.20;;;10.40;99.90;;;;;;5070447;28;20044;-36
2023/03/24 05:34:33;;;;;;;6.65;2.33;;;10.40;99.90;;;;;;5071468;28;20052;-36
2023/03/24 05:36:59;;;;;;;7.60;3.03;;;10.20;99.90;;;;;;5070054;28;20041;-36
2023/03/24 05:39:25;;;;;;;9.65;2.40;;;10.20;99.90;;;;;;5070157;28;20037;-36
2023/03/24 05:41:51;;;;;;;8.23;2.60;;;10.10;99.90;;;;;;5075112;28;20040;-36
2023/03/24 05:44:16;;;;;;;6.35;2.30;;;10.10;99.90;;;;;;5074246;28;20508;-36
2023/03/24 05:46:42;;;;;;;7.13;2.60;;;10.00;99.90;;;;;;5057208;28;20123;-36
2023/03/24 05:49:08;;;;;;;10.20;2.55;;;10.00;99.90;;;;;;5057288;28;20051;-36
2023/03/24 05:51:34;;;;;;;9.07;2.45;;;9.80;99.90;;;;;;5074176;28;20289;-36
2023/03/24 05:53:59;;;;;;;6.03;2.40;;;9.80;99.90;;;;;;5073700;28;20041;-36
2023/03/24 05:56:26;;;;;;;5.97;2.40;;;9.80;99.90;;;;;;5073983;28;20036;-36
2023/03/24 05:58:52;;;;;;;7.57;2.30;;;9.70;99.90;;;;;;5073860;28;20036;-36
2023/03/24 06:01:18;;;;;;;9.68;2.60;;;9.70;99.90;;;;;;5074101;28;20690;-36
2023/03/24 06:03:44;;;;;;;5.68;2.47;;;9.70;99.90;;;;;;5073810;28;20039;-36
2023/03/24 06:06:15;;;;;;;8.85;3.38;;;9.60;99.90;;;;;;5073580;28;20060;-36
2023/03/24 06:08:43;;;;;;;12.23;2.75;;;9.60;99.90;;;;;;5073418;28;20064;-35
2023/03/24 06:11:10;;;;;;;14.32;2.60;;;9.70;99.90;;;;;;5056716;28;20119;-36
2023/03/24 06:13:36;;;;;;;10.90;2.85;;;9.60;99.90;;;;;;5056934;28;20037;-37
2023/03/24 06:16:02;;;;;;;6.78;2.40;;;9.60;99.90;;;;;;5073549;28;20452;-36
2023/03/24 06:18:32;;;;;;;9.30;2.40;;;9.60;99.90;;;;;;5059415;28;20095;-36
2023/03/24 06:20:58;;;;;;;11.18;3.10;;;9.70;99.90;;;;;;5073477;28;20390;-35
2023/03/24 06:23:26;;;;;;;6.07;2.22;;;9.70;99.90;;;;;;5073019;28;20119;-36
2023/03/24 06:25:57;;;;;;;10.77;2.80;;;9.80;99.90;;;;;;5073571;28;20492;-37
2023/03/24 06:28:25;;;;;;;6.13;2.50;;;9.80;99.90;;;;;;5073425;28;20102;-37
2023/03/24 06:30:50;;;;;;;11.13;2.90;;;9.90;99.90;;;;;;5079644;28;20528;-36
2023/03/24 06:33:16;;;;;;;7.00;2.08;;;9.90;99.90;;;;;;5073997;28;20076;-36
2023/03/24 06:35:42;;;;;;;10.35;2.55;;;9.90;99.90;;;;;;5073111;28;20109;-36
2023/03/24 06:38:08;;;;;;;9.68;2.70;;;10.00;99.90;;;;;;5072913;28;20508;-35
2023/03/24 06:40:35;;;;;;;7.63;2.85;;;10.00;99.90;;;;;;5057471;28;20036;-36
2023/03/24 06:43:02;;;;;;;6.43;2.55;;;10.10;99.90;;;;;;5053661;28;20045;-37
2023/03/24 06:45:28;;;;;;;4.93;2.80;;;10.10;99.90;;;;;;5052671;28;20094;-35
2023/03/24 06:47:57;;;;;;;5.95;2.30;;;10.10;99.90;;;;;;5053072;28;20048;-36
2023/03/24 06:50:25;;;;;;;9.80;2.67;;;10.20;99.90;;;;;;5061553;28;20068;-37
2023/03/24 06:52:52;;;;;;;7.72;2.42;;;10.20;99.90;;;;;;5072940;28;20423;-37
2023/03/24 06:55:18;;;;;;;9.57;2.60;;;10.20;99.90;;;;;;5057535;28;20428;-35
2023/03/24 06:57:44;;;;;;;7.15;2.90;;;10.20;99.90;;;;;;5053001;28;20402;-34
2023/03/24 07:00:10;;;;;;;7.63;2.65;;;10.20;99.90;;;;;;5052938;28;20045;-34
2023/03/24 07:02:37;;;;;;;10.00;2.70;;;10.40;99.90;;;;;;5052750;28;20490;-34
2023/03/24 07:05:08;;;;;;;7.63;3.05;;;10.40;99.90;;;;;;5061011;28;20045;-34
2023/03/24 07:07:34;;;;;;;7.60;2.53;;;10.40;99.90;;;;;;5072870;28;20036;-35
2023/03/24 07:10:01;;;;;;;9.80;2.63;;;10.40;99.90;;;;;;5072951;28;20410;-34
2023/03/24 07:12:29;;;;;;;10.00;3.17;;;10.40;99.90;;;;;;5072264;28;20515;-34
2023/03/24 07:14:58;;;;;;;9.23;2.63;;;10.40;99.90;;;;;;5072517;28;20051;-35
2023/03/24 07:17:26;;;;;;;6.82;2.72;;;10.40;99.90;;;;;;5071729;28;20044;-34
2023/03/24 07:19:52;;;;;;;9.57;2.92;;;10.50;99.90;;;;;;5072412;28;20047;-35
2023/03/24 07:22:17;;;;;;;11.05;3.13;;;10.50;99.90;;;;;;5072262;28;20375;-35
2023/03/24 07:24:43;;;;;;;8.68;2.92;;;10.50;99.90;;;;;;5071756;28;20044;-35
2023/03/24 07:27:09;;;;;;;7.47;2.78;;;10.40;99.90;;;;;;5055935;28;20097;-35
2023/03/24 07:29:35;;;;;;;12.55;3.25;;;10.60;99.90;;;;;;5072225;28;20379;-35
2023/03/24 07:32:00;;;;;;;10.75;3.58;;;10.50;99.90;;;;;;5071843;28;20105;-34
2023/03/24 07:34:27;;;;;;;13.15;2.92;;;10.60;99.90;;;;;;5071737;28;20036;-37
2023/03/24 07:36:53;;;;;;;17.17;3.83;;;10.60;99.90;;;;;;5070257;28;20048;-35
2023/03/24 07:39:19;;;;;;;10.88;3.03;;;10.60;99.90;;;;;;5070515;28;20032;-35
2023/03/24 07:41:48;;;;;;;12.77;3.42;;;10.70;99.90;;;;;;5070835;28;20072;-35
2023/03/24 07:44:14;;;;;;;13.57;3.42;;;10.70;99.90;;;;;;5056373;28;20086;-35
2023/03/24 07:46:40;;;;;;;16.40;3.88;;;10.70;99.90;;;;;;5051107;28;20068;-36
2023/03/24 07:49:06;;;;;;;14.35;3.50;;;10.80;99.90;;;;;;5053238;28;20087;-36
2023/03/24 07:51:32;;;;;;;12.27;3.42;;;10.80;99.90;;;;;;5071593;28;20086;-35
2023/03/24 07:53:58;;;;;;;14.48;3.42;;;10.90;99.90;;;;;;5073016;28;20505;-36
2023/03/24 07:56:24;;;;;;;14.75;3.70;;;10.80;99.90;;;;;;5071704;28;20036;-36
2023/03/24 07:58:50;;;;;;;14.60;3.80;;;10.90;99.90;;;;;;5071462;28;20047;-35
2023/03/24 08:01:16;;;;;;;14.88;3.10;;;10.70;99.90;;;;;;5071548;28;20043;-36
2023/03/24 08:03:41;;;;;;;14.60;4.22;;;10.80;99.90;;;;;;5070911;28;20028;-35
2023/03/24 08:06:08;;;;;;;14.82;4.32;;;10.70;99.90;;;;;;5071786;28;20040;-35
2023/03/24 08:08:35;;;;;;;17.05;4.13;;;10.80;99.90;;;;;;5071811;28;20044;-38
2023/03/24 08:11:02;;;;;;;13.73;3.97;;;10.90;99.90;;;;;;5070772;28;20037;-38
2023/03/24 08:13:28;;;;;;;12.10;3.63;;;11.00;99.90;;;;;;5063115;28;20278;-38
2023/03/24 08:15:54;;;;;;;17.77;3.88;;;11.10;99.90;;;;;;5065579;28;20050;-38
2023/03/24 08:18:21;;;;;;;14.38;3.97;;;11.30;99.90;;;;;;5063192;28;20135;-38
2023/03/24 08:20:49;;;;;;;9.30;3.63;;;11.50;99.90;;;;;;5063560;28;20497;-38
2023/03/24 08:23:16;;;;;;;14.52;4.15;;;11.40;99.90;;;;;;5057818;28;20033;-38
2023/03/24 08:25:43;;;;;;;13.60;4.13;;;11.50;99.90;;;;;;5064849;28;20037;-38
2023/03/24 08:28:09;;;;;;;12.40;3.63;;;11.50;99.90;;;;;;5062935;28;20048;-38
2023/03/24 08:30:35;;;;;;;14.00;3.25;;;11.50;99.90;;;;;;5060631;28;20371;-38
2023/03/24 08:33:02;;;;;;;15.02;3.50;;;11.50;99.90;;;;;;5063579;28;20040;-38
2023/03/24 08:35:37;;;;;;;12.27;4.05;;;11.80;99.90;;;;;;5058837;28;20041;-38
2023/03/24 08:38:03;;;;;;;8.52;3.58;;;11.70;99.90;;;;;;5078743;28;20032;-38
2023/03/24 08:40:30;;;;;;;11.43;3.28;;;11.70;99.90;;;;;;5047782;28;20119;-38
2023/03/24 08:42:59;;;;;;;11.35;3.20;;;11.80;99.90;;;;;;5076776;28;20123;-38
2023/03/24 08:45:29;;;;;;;13.00;3.55;;;11.80;99.90;;;;;;5076202;28;20039;-38
2023/03/24 08:47:57;;;;;;;12.45;3.60;;;11.70;99.90;;;;;;5064460;28;20036;-38
2023/03/24 08:50:26;;;;;;;13.02;3.22;;;11.50;99.90;;;;;;5072199;28;20425;-38
2023/03/24 08:52:54;;;;;;;14.57;2.97;;;11.60;99.90;;;;;;5069339;28;20040;-38
2023/03/24 08:55:24;;;;;;;13.93;3.78;;;11.60;99.90;;;;;;5080638;28;20574;-38
2023/03/24 08:57:51;;;;;;;13.70;3.33;;;11.50;99.90;;;;;;5062337;28;20041;-37
2023/03/24 09:00:19;;;;;;;13.63;3.15;;;11.40;99.90;;;;;;5058959;28;20040;-38
2023/03/24 09:02:47;;;;;;;12.07;2.80;;;11.40;99.90;;;;;;5064771;28;20032;-37
2023/03/24 09:05:14;;;;;;;12.98;3.10;;;11.30;99.90;;;;;;5078539;28;20394;-38
2023/03/24 09:07:41;;;;;;;15.25;3.00;;;11.20;99.90;;;;;;5085540;28;20528;-38
2023/03/24 09:10:08;;;;;;;12.63;3.67;;;11.30;99.90;;;;;;5070326;28;20040;-38
2023/03/24 09:12:35;;;;;;;15.32;3.47;;;11.50;99.90;;;;;;5070421;28;20120;-37
2023/03/24 09:15:03;;;;;;;10.48;3.28;;;11.70;99.90;;;;;;5080445;28;20075;-38
2023/03/24 09:17:29;;;;;;;14.75;3.40;;;12.00;99.90;;;;;;5081042;28;20101;-37
2023/03/24 09:19:56;;;;;;;10.02;2.97;;;12.20;99.90;;;;;;5088089;28;20036;-38
2023/03/24 09:22:23;;;;;;;10.13;2.95;;;12.90;99.90;;;;;;5076452;28;20078;-38
2023/03/24 09:24:49;;;;;;;13.52;3.17;;;13.20;99.90;;;;;;5089586;28;20111;-38
2023/03/24 09:27:18;;;;;;;11.80;3.03;;;13.20;99.90;;;;;;5081490;28;20036;-38
2023/03/24 09:29:46;;;;;;;13.15;3.10;;;13.50;99.90;;;;;;5085364;28;20040;-38
2023/03/24 09:32:12;;;;;;;10.30;3.22;;;13.70;99.90;;;;;;5075138;28;20036;-38
2023/03/24 09:34:38;;;;;;;10.40;2.40;;;14.00;99.90;;;;;;5074608;28;20111;-38
2023/03/24 09:37:05;;;;;;;12.38;2.97;;;14.20;99.90;;;;;;5073872;28;20509;-38
2023/03/24 09:39:31;;;;;;;11.15;2.88;;;14.30;99.90;;;;;;5071414;28;20504;-38
2023/03/24 09:41:57;;;;;;;10.93;2.65;;;14.10;99.90;;;;;;5055094;28;20044;-38
2023/03/24 09:44:28;;;;;;;8.82;2.53;;;14.00;99.90;;;;;;5072571;28;20109;-38
2023/03/24 09:47:24;;;;;;;10.45;2.58;;;14.10;99.90;;;;;;5074308;28;20076;-38
2023/03/24 09:49:51;;;;;;;9.80;2.55;;;13.60;99.90;;;;;;5058260;28;20044;-38
2023/03/24 09:52:22;;;;;;;9.35;2.90;;;13.80;99.90;;;;;;5059078;28;20060;-38
2023/03/24 09:54:57;;;;;;;10.45;2.78;;;14.20;99.90;;;;;;5069280;28;20424;-38
2023/03/24 09:57:37;;;;;;;11.20;2.42;;;14.60;99.90;;;;;;5069756;28;20448;-38
2023/03/24 10:00:26;;;;;;;11.63;2.78;;;14.80;99.90;;;;;;5061712;28;20072;-38
2023/03/24 10:02:55;;;;;;;11.23;2.40;;;15.20;99.90;;;;;;5066077;28;20111;-38
2023/03/24 10:05:40;;;;;;;14.15;3.42;;;15.20;99.90;;;;;;5071177;28;20410;-38
2023/03/24 10:08:38;;;;;;;11.73;2.83;;;15.60;99.90;;;;;;5083770;28;20126;-37
2023/03/24 10:11:10;;;;;;;8.57;2.40;;;15.80;99.90;;;;;;5071538;28;20048;-37
2023/03/24 10:14:11;;;;;;;11.38;2.97;;;15.90;99.90;;;;;;5070632;28;20037;-38
2023/03/24 10:16:51;;;;;;;11.23;2.38;;;15.70;99.90;;;;;;5066402;28;20045;-38
2023/03/24 10:19:44;;;;;;;6.50;2.30;;;16.20;99.90;;;;;;5079650;28;20055;-38
2023/03/24 10:22:47;;;;;;;7.72;2.22;;;16.50;99.90;;;;;;5063524;28;20129;-38
2023/03/24 10:25:43;;;;;;;12.18;2.15;;;17.10;99.90;;;;;;5069928;28;20442;-37
2023/03/24 10:28:32;;;;;;;8.38;2.10;;;17.40;99.90;;;;;;5067006;28;20124;-37
2023/03/24 10:31:01;;;;;;;8.50;2.25;;;17.00;99.90;;;;;;5071908;28;20044;-38
2023/03/24 10:33:27;;;;;;;10.02;2.45;;;17.30;99.90;;;;;;5062370;28;20041;-38
2023/03/24 10:36:08;;;;;;;8.35;2.60;;;17.10;99.90;;;;;;5066100;28;20035;-37
2023/03/24 10:38:34;;;;;;;9.65;2.65;;;17.30;99.90;;;;;;5046209;28;20072;-37
2023/03/24 10:41:00;;;;;;;8.55;2.22;;;17.30;99.90;;;;;;5070779;28;20044;-38
2023/03/24 10:43:27;;;;;;;9.50;2.50;;;17.60;99.90;;;;;;5074027;28;20174;-38
2023/03/24 10:45:56;;;;;;;7.22;2.35;;;18.50;99.90;;;;;;5059821;28;20116;-38
2023/03/24 10:48:45;;;;;;;9.30;2.35;;;18.40;99.90;;;;;;5064758;28;20040;-43
2023/03/24 10:51:19;;;;;;;11.77;2.50;;;18.70;99.90;;;;;;5063961;28;20056;-38
2023/03/24 10:53:47;;;;;;;8.43;2.40;;;18.30;99.90;;;;;;5064721;28;20032;-37
2023/03/24 10:56:38;;;;;;;9.75;2.20;;;17.90;99.90;;;;;;5071765;28;20106;-38
2023/03/24 10:59:26;;;;;;;7.28;2.13;;;17.90;99.90;;;;;;5064270;28;20040;-37
2023/03/24 11:02:17;;;;;;;9.48;2.25;;;18.60;99.90;;;;;;5065683;28;20036;-37
2023/03/24 11:04:51;;;;;;;8.90;2.58;;;18.70;99.90;;;;;;5064065;28;20076;-38
2023/03/24 11:07:21;;;;;;;8.93;2.55;;;19.30;99.90;;;;;;5031522;28;1145608;-37
2023/03/24 11:10:15;;;;;;;7.53;2.75;;;19.10;99.90;;;;;;5076142;28;20032;-41
2023/03/24 11:12:53;;;;;;;10.52;2.80;;;19.90;99.90;;;;;;5078526;28;20040;-38
2023/03/24 11:15:31;;;;;;;7.68;2.28;;;19.80;99.90;;;;;;5069623;28;20033;-37
2023/03/24 11:18:00;;;;;;;6.03;1.88;;;20.20;97.00;;;;;;5057592;28;20143;-38
2023/03/24 11:20:26;;;;;;;7.13;2.47;;;19.30;99.90;;;;;;5076947;28;20037;-37
2023/03/24 11:23:05;;;;;;;8.38;2.00;;;18.80;99.90;;;;;;5081970;28;20036;-38
2023/03/24 11:25:35;;;;;;;7.53;2.33;;;19.30;99.90;;;;;;5070223;28;20036;-38
2023/03/24 11:28:27;;;;;;;6.95;2.28;;;19.40;86.00;;;;;;5076541;28;20101;-37
2023/03/24 11:30:54;;;;;;;7.55;2.00;;;20.00;75.00;;;;;;5066115;28;20062;-37
2023/03/24 11:33:33;;;;;;;5.53;1.98;;;19.40;99.90;;;;;;5076111;28;20051;-38
2023/03/24 11:36:32;;;;;;;7.95;1.98;;;19.30;70.00;;;;;;5072875;28;20119;-36
2023/03/24 11:39:12;;;;;;;6.05;1.63;;;19.50;83.60;;;;;;5052334;28;20049;-37
2023/03/24 11:41:42;;;;;;;6.65;1.80;;;19.80;75.50;;;;;;5073848;28;20127;-37
2023/03/24 11:44:20;;;;;;;4.82;2.00;;;20.20;83.20;;;;;;5070813;28;20314;-37
2023/03/24 11:46:58;;;;;;;7.85;2.20;;;20.10;71.20;;;;;;5069185;28;20079;-37
2023/03/24 11:49:31;;;;;;;6.47;2.20;;;19.90;99.90;;;;;;5079113;28;20040;-37
2023/03/24 11:51:57;;;;;;;6.65;2.15;;;20.20;96.90;;;;;;5075583;28;20382;-37
2023/03/24 11:54:34;;;;;;;7.28;2.30;;;20.70;99.90;;;;;;5052305;28;20102;-36
2023/03/24 11:57:06;;;;;;;6.10;2.08;;;20.60;81.40;;;;;;5056143;28;20040;-36
2023/03/24 12:00:18;;;;;;;8.25;2.20;;;20.90;81.10;;;;;;5065025;28;20047;-37
2023/03/24 12:03:18;;;;;;;6.22;2.15;;;21.20;63.40;;;;;;5044802;28;20126;-37
2023/03/24 12:05:57;;;;;;;7.35;2.60;;;20.80;64.10;;;;;;5063702;28;20029;-36
2023/03/24 12:08:23;;;;;;;8.70;2.28;;;21.10;73.70;;;;;;5071716;28;20029;-37
2023/03/24 12:11:15;;;;;;;6.07;2.00;;;20.30;99.90;;;;;;5068886;28;20047;-36
2023/03/24 12:13:47;;;;;;;8.45;2.40;;;20.50;65.90;;;;;;5067392;28;20041;-36
2023/03/24 12:16:55;;;;;;;7.05;2.33;;;20.50;84.50;;;;;;5055855;28;20037;-36
2023/03/24 12:19:55;;;;;;;7.40;2.60;;;21.30;65.30;;;;;;5066734;28;20052;-37
2023/03/24 12:22:44;;;;;;;5.40;1.77;;;21.00;61.30;;;;;;5058046;28;20036;-36
2023/03/24 12:25:29;;;;;;;5.50;1.73;;;21.30;61.90;;;;;;5070874;28;20072;-36
2023/03/24 12:28:10;;;;;;;6.53;2.00;;;20.50;58.70;;;;;;5059881;28;20039;-37
2023/03/24 12:31:02;;;;;;;6.85;1.73;;;21.00;63.00;;;;;;5070423;28;20075;-37
2023/03/24 12:33:46;;;;;;;5.85;1.80;;;20.90;56.30;;;;;;5079990;28;20119;-37
2023/03/24 12:36:33;;;;;;;6.55;2.13;;;20.90;55.30;;;;;;5059437;28;20044;-36
2023/03/24 12:39:07;;;;;;;6.93;1.80;;;20.90;56.00;;;;;;5070931;28;20040;-36
2023/03/24 12:41:38;;;;;;;6.20;2.17;;;20.90;59.30;;;;;;5071558;28;20041;-36
2023/03/24 12:44:35;;;;;;;5.70;2.00;;;20.70;60.00;;;;;;5069116;28;20036;-38
2023/03/24 12:47:06;;;;;;;7.78;2.10;;;19.90;52.60;;;;;;5075140;28;20473;-37
2023/03/24 12:49:52;;;;;;;4.35;1.83;;;20.00;60.30;;;;;;5079598;28;20047;-36
2023/03/24 12:52:39;;;;;;;9.57;1.92;;;20.30;55.40;;;;;;5076357;28;20032;-37
2023/03/24 12:55:18;;;;;;;7.63;2.03;;;20.90;56.60;;;;;;5063678;28;20036;-37
2023/03/24 12:58:08;;;;;;;6.97;2.20;;;20.70;56.50;;;;;;5052042;28;20050;-37
2023/03/24 13:00:52;;;;;;;6.70;2.30;;;21.50;58.60;;;;;;5068836;28;20124;-36
2023/03/24 13:03:27;;;;;;;7.72;2.30;;;22.30;59.00;;;;;;5077196;28;20043;-37
2023/03/24 13:05:57;;;;;;;6.90;2.13;;;22.80;58.70;;;;;;5070404;28;20029;-37
2023/03/24 13:08:31;;;;;;;7.82;2.35;;;22.30;57.50;;;;;;5059874;28;20041;-37
2023/03/24 13:11:06;;;;;;;7.25;2.35;;;21.50;58.80;;;;;;5062096;28;20041;-37
2023/03/24 13:13:36;;;;;;;7.55;2.20;;;21.80;58.00;;;;;;5059667;28;20044;-37
2023/03/24 13:16:08;;;;;;;7.80;2.22;;;22.30;57.20;;;;;;5067917;28;20047;-37